Scranton, South Carolina
Current Conditions -  °F | °C
As of 2:35 PM on Thursday 30 Oct 2014 (Local Time) from KCKI Reporting Station
Clear Clear  
Wind Chill: 72°   Ceiling: Unl
Heat Index: 72°   Visibility: 10mi
Dew Point: 50°   Wind: 7mph
Humidity: 46%   Direction: 40°NE
Pressure: 29.96"   Gusts: NA
Location:  33.92°N, 79.74°W
Report Text: KCKI 301835Z AUTO 04006KT 10SM CLR 22/10 A2996 RMK AO2
Loading
Personal Weather Stations






























Interactive Weather Map
Tropical Storm Tracking
New forecast layout! Learn more

10-Day Weather Forecast

Advertisements
Track Severe Weather on mobile